Algiers, Algeria
Current Conditions -  °F | °C
As of 10:00 PM on Thursday 20 Nov 2014 (Local Time) from DAAG Reporting Station
Clear Clear  
Wind Chill: 59°   Ceiling: Unl
Heat Index: 59°   Visibility: 6mi
Dew Point: 55°   Wind: 3mph
Humidity: 88%   Direction: 110°ESE
Pressure: 30.06"   Gusts: NA
Location:  36.77°N, 3.04°E
Report Text: DAAG 202100Z 11003KT CAVOK 15/13 Q1018
Loading
Personal Weather Stations






























Interactive Weather Map New forecast layout! Learn more

10-Day Weather Forecast

Advertisements
Track Severe Weather on mobile